Time;durP1;ratioP1;P1;durP2;ratioP2;P2;SDS_P1;SDS_P2;PMS_P1;PMS_P2;Temp;Humidity;BMP_temperature;BMP_pressure;BME280_temperature;BME280_humidity;BME280_pressure;Samples;Min_cycle;Max_cycle;Signal;HPM_P1;HPM_P2
2022/07/06 00:00:04;;;;;;;3.70;1.17;;;;;;;;;;5027692;28;20255;-50
2022/07/06 00:02:30;;;;;;;1.25;1.15;;;;;;;;;;5024964;28;20232;-50
2022/07/06 00:04:58;;;;;;;2.13;0.93;;;;;;;;;;5047776;28;20238;-52
2022/07/06 00:07:24;;;;;;;1.30;0.80;;;;;;;;;;5051490;28;20235;-51
2022/07/06 00:09:51;;;;;;;2.47;0.75;;;;;;;;;;5041301;28;20231;-51
2022/07/06 00:12:17;;;;;;;0.80;0.70;;;;;;;;;;5024730;28;20231;-51
2022/07/06 00:14:44;;;;;;;3.38;1.00;;;;;;;;;;5039925;28;20235;-52
2022/07/06 00:17:10;;;;;;;3.67;1.10;;;;;;;;;;5038454;28;20248;-53
2022/07/06 00:19:36;;;;;;;2.15;0.60;;;;;;;;;;5042506;28;20248;-50
2022/07/06 00:22:04;;;;;;;3.42;1.30;;;;;;;;;;5047705;28;20804;-51
2022/07/06 00:24:30;;;;;;;1.02;0.70;;;;;;;;;;5041553;28;20243;-52
2022/07/06 00:26:56;;;;;;;2.00;0.90;;;;;;;;;;5044737;28;20785;-51
2022/07/06 00:29:23;;;;;;;2.50;0.70;;;;;;;;;;5042181;28;20243;-51
2022/07/06 00:31:49;;;;;;;1.25;0.80;;;;;;;;;;5041379;28;20235;-53
2022/07/06 00:34:15;;;;;;;1.27;1.17;;;;;;;;;;5037831;28;20598;-52
2022/07/06 00:36:42;;;;;;;1.77;1.38;;;;;;;;;;5037310;28;20244;-52
2022/07/06 00:39:10;;;;;;;2.30;1.10;;;;;;;;;;5035378;28;20255;-52
2022/07/06 00:41:36;;;;;;;0.88;0.88;;;;;;;;;;5042210;28;20315;-51
2022/07/06 00:44:07;;;;;;;1.00;0.80;;;;;;;;;;5041411;28;20240;-52
2022/07/06 00:46:35;;;;;;;3.13;0.70;;;;;;;;;;5039013;28;20254;-52
2022/07/06 00:49:01;;;;;;;2.75;0.80;;;;;;;;;;5020076;28;20244;-51
2022/07/06 00:51:29;;;;;;;0.90;0.88;;;;;;;;;;5018476;28;20239;-51
2022/07/06 00:53:56;;;;;;;1.42;1.00;;;;;;;;;;5027022;28;20240;-51
2022/07/06 00:56:24;;;;;;;2.33;1.15;;;;;;;;;;5039927;28;20243;-51
2022/07/06 00:58:50;;;;;;;1.23;0.88;;;;;;;;;;5034298;28;20228;-53
2022/07/06 01:01:17;;;;;;;1.13;1.02;;;;;;;;;;5035845;28;20247;-51
2022/07/06 01:03:43;;;;;;;2.25;1.23;;;;;;;;;;5037242;28;20251;-50
2022/07/06 01:06:09;;;;;;;1.75;1.00;;;;;;;;;;5033417;28;20233;-53
2022/07/06 01:08:36;;;;;;;1.35;1.25;;;;;;;;;;5025088;28;21167;-51
2022/07/06 01:11:04;;;;;;;1.45;1.05;;;;;;;;;;5035237;28;20247;-51
2022/07/06 01:13:33;;;;;;;3.15;1.10;;;;;;;;;;5032319;28;20232;-51
2022/07/06 01:15:59;;;;;;;2.08;1.30;;;;;;;;;;5032232;28;20239;-51
2022/07/06 01:18:26;;;;;;;2.38;1.15;;;;;;;;;;5033762;28;20228;-58
2022/07/06 01:21:05;;;;;;;2.88;1.30;;;;;;;;;;5041091;28;20240;-51
2022/07/06 01:23:31;;;;;;;1.33;0.90;;;;;;;;;;5039083;28;20235;-51
2022/07/06 01:25:57;;;;;;;1.40;0.80;;;;;;;;;;5044154;28;20232;-51
2022/07/06 01:28:24;;;;;;;2.03;1.48;;;;;;;;;;5017956;28;20714;-52
2022/07/06 01:30:50;;;;;;;2.20;1.20;;;;;;;;;;5020335;28;20240;-51
2022/07/06 01:33:16;;;;;;;2.03;1.20;;;;;;;;;;5020416;28;20251;-50
2022/07/06 01:35:43;;;;;;;2.15;1.20;;;;;;;;;;5029827;28;20239;-52
2022/07/06 01:38:10;;;;;;;3.72;1.42;;;;;;;;;;5017051;28;20259;-51
2022/07/06 01:40:37;;;;;;;1.80;1.10;;;;;;;;;;5014566;28;20252;-52
2022/07/06 01:43:05;;;;;;;1.40;1.10;;;;;;;;;;5013978;28;20735;-51
2022/07/06 01:45:32;;;;;;;1.77;1.33;;;;;;;;;;5030952;28;20256;-51
2022/07/06 01:47:58;;;;;;;1.65;1.05;;;;;;;;;;5033748;28;20237;-53
2022/07/06 01:50:25;;;;;;;2.35;1.27;;;;;;;;;;5023913;28;20245;-52
2022/07/06 01:52:51;;;;;;;2.45;1.40;;;;;;;;;;5017187;28;20237;-51
2022/07/06 01:55:19;;;;;;;3.05;1.25;;;;;;;;;;5021864;28;20241;-53
2022/07/06 01:57:45;;;;;;;2.22;1.15;;;;;;;;;;5016179;28;20646;-52
2022/07/06 02:00:12;;;;;;;3.17;1.20;;;;;;;;;;5023924;28;20236;-51
2022/07/06 02:02:38;;;;;;;2.65;1.25;;;;;;;;;;5031593;28;20244;-52
2022/07/06 02:05:04;;;;;;;1.67;1.58;;;;;;;;;;5038158;28;20706;-52
2022/07/06 02:07:31;;;;;;;1.95;1.25;;;;;;;;;;5029993;28;20228;-51
2022/07/06 02:09:57;;;;;;;1.08;0.93;;;;;;;;;;5041033;28;20235;-52
2022/07/06 02:12:25;;;;;;;1.25;0.88;;;;;;;;;;5031669;28;20233;-52
2022/07/06 02:14:51;;;;;;;2.13;1.08;;;;;;;;;;5035434;28;20239;-52
2022/07/06 02:17:17;;;;;;;2.20;1.05;;;;;;;;;;5031990;28;20243;-51
2022/07/06 02:19:44;;;;;;;2.50;1.65;;;;;;;;;;5044645;28;20231;-52
2022/07/06 02:22:10;;;;;;;1.30;1.20;;;;;;;;;;5046161;28;20229;-53
2022/07/06 02:24:36;;;;;;;2.40;1.30;;;;;;;;;;5044630;28;20239;-51
2022/07/06 02:27:03;;;;;;;2.20;1.35;;;;;;;;;;5046590;28;20312;-51
2022/07/06 02:29:31;;;;;;;1.85;1.27;;;;;;;;;;5043568;28;20841;-53
2022/07/06 02:31:57;;;;;;;2.13;1.92;;;;;;;;;;5041187;28;20319;-52
2022/07/06 02:34:23;;;;;;;4.00;2.25;;;;;;;;;;5037577;28;20730;-52
2022/07/06 02:36:50;;;;;;;1.25;1.20;;;;;;;;;;5026738;28;20619;-52
2022/07/06 02:39:16;;;;;;;1.42;1.33;;;;;;;;;;5047359;28;20239;-52
2022/07/06 02:41:42;;;;;;;1.48;1.38;;;;;;;;;;5036641;28;20245;-52
2022/07/06 02:44:09;;;;;;;1.55;1.40;;;;;;;;;;5036528;28;20251;-52
2022/07/06 02:46:36;;;;;;;3.95;1.85;;;;;;;;;;5042168;28;20240;-51
2022/07/06 02:49:03;;;;;;;3.53;1.92;;;;;;;;;;5023822;28;20303;-51
2022/07/06 02:51:29;;;;;;;3.35;1.67;;;;;;;;;;5026104;28;20237;-51
2022/07/06 02:53:55;;;;;;;2.38;2.03;;;;;;;;;;5036386;28;20242;-51
2022/07/06 02:56:22;;;;;;;3.15;1.85;;;;;;;;;;5041722;28;20232;-52
2022/07/06 02:58:48;;;;;;;2.78;1.80;;;;;;;;;;5043788;28;20243;-52
2022/07/06 03:01:14;;;;;;;2.58;2.40;;;;;;;;;;5041481;28;20271;-52
2022/07/06 03:03:42;;;;;;;3.58;1.63;;;;;;;;;;5030822;28;20247;-53
2022/07/06 03:06:08;;;;;;;3.85;1.58;;;;;;;;;;5024459;28;20233;-52
2022/07/06 03:08:35;;;;;;;7.30;2.05;;;;;;;;;;5023493;28;20224;-52
2022/07/06 03:11:01;;;;;;;1.90;1.40;;;;;;;;;;5024040;28;20233;-52
2022/07/06 03:13:28;;;;;;;2.88;1.75;;;;;;;;;;5040677;28;20764;-51
2022/07/06 03:15:55;;;;;;;2.13;1.52;;;;;;;;;;5044790;28;20543;-52
2022/07/06 03:18:21;;;;;;;1.80;1.50;;;;;;;;;;5035920;28;20236;-52
2022/07/06 03:20:48;;;;;;;2.25;1.80;;;;;;;;;;5034851;28;20240;-53
2022/07/06 03:23:15;;;;;;;3.38;1.83;;;;;;;;;;5028741;28;20236;-51
2022/07/06 03:25:41;;;;;;;3.40;1.80;;;;;;;;;;5025526;28;20233;-52
2022/07/06 03:28:07;;;;;;;2.03;1.55;;;;;;;;;;5025560;28;20229;-52
2022/07/06 03:30:34;;;;;;;2.83;1.60;;;;;;;;;;5025586;28;20220;-51
2022/07/06 03:33:00;;;;;;;3.53;1.70;;;;;;;;;;5024770;28;20233;-52
2022/07/06 03:35:26;;;;;;;2.22;1.67;;;;;;;;;;5026984;28;20229;-52
2022/07/06 03:37:54;;;;;;;2.13;1.48;;;;;;;;;;5017566;28;20975;-50
2022/07/06 03:40:20;;;;;;;2.30;1.63;;;;;;;;;;5024605;28;20718;-52
2022/07/06 03:42:47;;;;;;;1.70;1.60;;;;;;;;;;5026071;28;20650;-53
2022/07/06 03:45:13;;;;;;;2.38;1.77;;;;;;;;;;5046358;28;20239;-51
2022/07/06 03:47:40;;;;;;;1.98;1.42;;;;;;;;;;5044843;28;20802;-51
2022/07/06 03:50:06;;;;;;;2.67;1.50;;;;;;;;;;5039816;28;20772;-57
2022/07/06 03:52:35;;;;;;;3.33;1.95;;;;;;;;;;5023860;28;20592;-51
2022/07/06 03:55:02;;;;;;;7.30;1.98;;;;;;;;;;5025084;28;20251;-51
2022/07/06 03:57:29;;;;;;;2.83;1.60;;;;;;;;;;5033594;28;20272;-51
2022/07/06 03:59:55;;;;;;;3.15;1.75;;;;;;;;;;5043080;28;20839;-51
2022/07/06 04:02:21;;;;;;;1.70;1.60;;;;;;;;;;5032782;28;20244;-51
2022/07/06 04:04:48;;;;;;;3.00;2.13;;;;;;;;;;5031356;28;20244;-51
2022/07/06 04:07:14;;;;;;;2.40;1.45;;;;;;;;;;5036359;28;20232;-52
2022/07/06 04:09:41;;;;;;;2.17;1.50;;;;;;;;;;5026556;28;20229;-52
2022/07/06 04:12:09;;;;;;;2.65;1.60;;;;;;;;;;5039864;28;20232;-52
2022/07/06 04:14:35;;;;;;;1.35;1.25;;;;;;;;;;5040905;28;20239;-51
2022/07/06 04:17:51;;;;;;;3.83;1.88;;;;;;;;;;5033718;28;20224;-51
2022/07/06 04:19:49;;;;;;;2.42;1.70;;;;;;;;;;5024550;28;20290;-50
2022/07/06 04:22:16;;;;;;;3.33;1.70;;;;;;;;;;5036389;28;20236;-52
2022/07/06 04:24:42;;;;;;;2.45;1.73;;;;;;;;;;5027442;28;20240;-51
2022/07/06 04:27:10;;;;;;;5.80;1.98;;;;;;;;;;5025288;28;20244;-54
2022/07/06 04:29:36;;;;;;;6.40;1.50;;;;;;;;;;5033774;28;20285;-52
2022/07/06 04:32:03;;;;;;;3.88;1.38;;;;;;;;;;5042455;28;20228;-53
2022/07/06 04:34:29;;;;;;;2.25;1.77;;;;;;;;;;5042344;28;20235;-51
2022/07/06 04:36:55;;;;;;;3.17;1.45;;;;;;;;;;5044044;28;20240;-52
2022/07/06 04:39:22;;;;;;;1.20;1.20;;;;;;;;;;5043644;28;20787;-52
2022/07/06 04:41:48;;;;;;;2.08;1.88;;;;;;;;;;5038688;28;20765;-51
2022/07/06 04:44:16;;;;;;;2.30;1.70;;;;;;;;;;5048151;28;20243;-51
2022/07/06 04:46:42;;;;;;;3.58;2.05;;;;;;;;;;5044708;28;20232;-51
2022/07/06 04:49:09;;;;;;;1.75;1.58;;;;;;;;;;5040244;28;20244;-52
2022/07/06 04:51:35;;;;;;;1.63;1.20;;;;;;;;;;5038857;28;20237;-51
2022/07/06 04:54:01;;;;;;;3.90;1.40;;;;;;;;;;5031869;28;20263;-52
2022/07/06 04:56:28;;;;;;;3.60;1.63;;;;;;;;;;5018146;28;20730;-52
2022/07/06 04:58:54;;;;;;;1.52;1.33;;;;;;;;;;5023449;28;20259;-51
2022/07/06 05:01:22;;;;;;;3.88;1.80;;;;;;;;;;5043308;28;20606;-53
2022/07/06 05:03:48;;;;;;;2.08;1.70;;;;;;;;;;5034873;28;20733;-53
2022/07/06 05:06:15;;;;;;;3.40;1.90;;;;;;;;;;5042991;28;20236;-51
2022/07/06 05:08:42;;;;;;;1.98;1.48;;;;;;;;;;5037942;28;20623;-57
2022/07/06 05:11:08;;;;;;;2.03;1.55;;;;;;;;;;5032101;28;20236;-51
2022/07/06 05:13:35;;;;;;;4.22;1.50;;;;;;;;;;5033306;28;20233;-51
2022/07/06 05:16:01;;;;;;;3.08;1.65;;;;;;;;;;5043927;28;20228;-52
2022/07/06 05:18:30;;;;;;;2.95;1.30;;;;;;;;;;5041770;28;20860;-51
2022/07/06 05:20:56;;;;;;;1.90;1.20;;;;;;;;;;5037121;28;20281;-52
2022/07/06 05:23:24;;;;;;;1.95;1.50;;;;;;;;;;5032742;28;20342;-51
2022/07/06 05:25:50;;;;;;;2.97;1.55;;;;;;;;;;5038684;28;20228;-52
2022/07/06 05:28:16;;;;;;;3.85;1.55;;;;;;;;;;5041847;28;20238;-50
2022/07/06 05:30:43;;;;;;;4.80;2.15;;;;;;;;;;5043888;28;20231;-51
2022/07/06 05:33:09;;;;;;;4.03;1.08;;;;;;;;;;5037037;28;20240;-52
2022/07/06 05:35:37;;;;;;;1.52;1.23;;;;;;;;;;5045850;28;20243;-53
2022/07/06 05:38:03;;;;;;;5.00;1.50;;;;;;;;;;5047254;28;20233;-51
2022/07/06 05:40:29;;;;;;;3.15;1.73;;;;;;;;;;5049712;28;20745;-52
2022/07/06 05:42:55;;;;;;;4.97;1.80;;;;;;;;;;5046499;28;20243;-50
2022/07/06 05:45:23;;;;;;;5.07;1.58;;;;;;;;;;5043536;28;20232;-51
2022/07/06 05:50:33;;;;;;;5.32;1.55;;;;;;;;;;5044938;28;20600;-52
2022/07/06 05:53:01;;;;;;;1.13;1.00;;;;;;;;;;5049668;28;20234;-52
2022/07/06 05:55:28;;;;;;;2.15;1.25;;;;;;;;;;5042518;28;20235;-52
2022/07/06 05:57:55;;;;;;;2.70;1.67;;;;;;;;;;5037285;28;20232;-51
2022/07/06 06:00:22;;;;;;;1.20;1.10;;;;;;;;;;5033637;28;20224;-50
2022/07/06 06:02:48;;;;;;;2.25;1.13;;;;;;;;;;5035292;28;20239;-52
2022/07/06 06:05:15;;;;;;;2.35;1.77;;;;;;;;;;5039740;28;20718;-52
2022/07/06 06:07:42;;;;;;;4.88;1.60;;;;;;;;;;5041474;28;20293;-52
2022/07/06 06:10:10;;;;;;;3.47;1.13;;;;;;;;;;5039558;28;20282;-52
2022/07/06 06:12:37;;;;;;;1.75;1.50;;;;;;;;;;5037108;28;20776;-51
2022/07/06 06:15:03;;;;;;;3.50;1.20;;;;;;;;;;5045232;28;20254;-52
2022/07/06 06:17:30;;;;;;;2.35;1.33;;;;;;;;;;5043930;28;20228;-50
2022/07/06 06:19:57;;;;;;;4.03;1.20;;;;;;;;;;5031774;28;20239;-51
2022/07/06 06:22:23;;;;;;;2.08;1.58;;;;;;;;;;5044177;28;20240;-51
2022/07/06 06:24:50;;;;;;;3.92;1.42;;;;;;;;;;5044575;28;20232;-51
2022/07/06 06:27:18;;;;;;;3.25;1.40;;;;;;;;;;5041629;28;20224;-52
2022/07/06 06:29:44;;;;;;;1.65;1.02;;;;;;;;;;5039853;28;20239;-50
2022/07/06 06:32:11;;;;;;;2.60;1.05;;;;;;;;;;5040569;28;20802;-50
2022/07/06 06:34:37;;;;;;;2.78;1.60;;;;;;;;;;5032131;28;20253;-51
2022/07/06 06:37:04;;;;;;;3.28;1.10;;;;;;;;;;5026406;28;20259;-51
2022/07/06 06:39:30;;;;;;;4.00;1.40;;;;;;;;;;5022000;28;20247;-50
2022/07/06 06:41:57;;;;;;;5.40;1.40;;;;;;;;;;5023118;28;20248;-51
2022/07/06 06:44:25;;;;;;;6.72;1.35;;;;;;;;;;5029031;28;20316;-53
2022/07/06 06:46:51;;;;;;;1.88;1.48;;;;;;;;;;5034743;28;20232;-52
2022/07/06 06:49:18;;;;;;;4.85;1.35;;;;;;;;;;5037031;28;20252;-52
2022/07/06 06:51:44;;;;;;;2.20;1.05;;;;;;;;;;5038813;28;20236;-50
2022/07/06 06:54:10;;;;;;;2.22;1.42;;;;;;;;;;5035979;28;20720;-52
2022/07/06 06:56:37;;;;;;;5.40;1.48;;;;;;;;;;5036122;28;20256;-51
2022/07/06 06:59:03;;;;;;;3.40;2.28;;;;;;;;;;5038309;28;20779;-52
2022/07/06 07:01:32;;;;;;;4.07;1.88;;;;;;;;;;5035471;28;20326;-51
2022/07/06 07:03:59;;;;;;;2.55;1.30;;;;;;;;;;5038236;28;20244;-51
2022/07/06 07:06:25;;;;;;;2.30;1.40;;;;;;;;;;5041760;28;20232;-51
2022/07/06 07:08:51;;;;;;;2.40;1.17;;;;;;;;;;5039813;28;20099;-51
2022/07/06 07:11:18;;;;;;;2.45;1.33;;;;;;;;;;5039832;28;20228;-53
2022/07/06 07:13:44;;;;;;;5.15;1.77;;;;;;;;;;5036039;28;20236;-50
2022/07/06 07:16:10;;;;;;;6.03;1.40;;;;;;;;;;5043228;28;20227;-52
2022/07/06 07:18:38;;;;;;;2.75;1.00;;;;;;;;;;5027967;28;20239;-51
2022/07/06 07:21:04;;;;;;;1.75;1.08;;;;;;;;;;5030121;28;20225;-51
2022/07/06 07:23:31;;;;;;;3.75;1.10;;;;;;;;;;5033822;28;20232;-52
2022/07/06 07:25:57;;;;;;;1.67;1.10;;;;;;;;;;5031444;28;20234;-50
2022/07/06 07:28:24;;;;;;;3.40;1.42;;;;;;;;;;5029408;28;20232;-51
2022/07/06 07:30:51;;;;;;;2.92;1.58;;;;;;;;;;5027111;28;20228;-52
2022/07/06 07:33:17;;;;;;;1.42;0.70;;;;;;;;;;5035568;28;20285;-50
2022/07/06 07:35:45;;;;;;;3.92;1.13;;;;;;;;;;5040119;28;20938;-52
2022/07/06 07:38:11;;;;;;;2.17;1.30;;;;;;;;;;5035184;28;20235;-52
2022/07/06 07:40:37;;;;;;;5.53;0.93;;;;;;;;;;5034750;28;20506;-52
2022/07/06 07:43:04;;;;;;;4.05;1.15;;;;;;;;;;5041336;28;20666;-52
2022/07/06 07:45:30;;;;;;;1.17;0.98;;;;;;;;;;5025046;28;20279;-51
2022/07/06 07:47:57;;;;;;;1.48;1.15;;;;;;;;;;5021481;28;20220;-52
2022/07/06 07:50:23;;;;;;;0.93;0.88;;;;;;;;;;5017660;28;20237;-52
2022/07/06 07:52:50;;;;;;;0.55;0.55;;;;;;;;;;5025374;28;20690;-51
2022/07/06 07:55:17;;;;;;;2.65;0.80;;;;;;;;;;5034820;28;20699;-52
2022/07/06 07:57:43;;;;;;;2.50;0.90;;;;;;;;;;5035376;28;20240;-52
2022/07/06 08:00:10;;;;;;;3.08;1.30;;;;;;;;;;5038571;28;20239;-52
2022/07/06 08:02:37;;;;;;;2.58;1.23;;;;;;;;;;5025821;28;20290;-51
2022/07/06 08:05:03;;;;;;;1.77;0.90;;;;;;;;;;5035803;28;20244;-51
2022/07/06 08:07:30;;;;;;;2.83;0.80;;;;;;;;;;5036588;28;20289;-50
2022/07/06 08:09:57;;;;;;;2.67;1.67;;;;;;;;;;5030659;28;20236;-51
2022/07/06 08:12:23;;;;;;;4.38;1.48;;;;;;;;;;5031005;28;20263;-51
2022/07/06 08:14:50;;;;;;;4.43;1.00;;;;;;;;;;5034363;28;20627;-51
2022/07/06 08:17:16;;;;;;;1.20;1.10;;;;;;;;;;5038568;28;20232;-51
2022/07/06 08:19:43;;;;;;;2.95;1.08;;;;;;;;;;5048689;28;20384;-52
2022/07/06 08:22:09;;;;;;;1.65;0.77;;;;;;;;;;5046957;28;20239;-51
2022/07/06 08:24:36;;;;;;;1.90;1.10;;;;;;;;;;5043500;28;20239;-52
2022/07/06 08:27:04;;;;;;;2.00;0.90;;;;;;;;;;5038494;28;20232;-51
2022/07/06 08:29:30;;;;;;;1.63;1.20;;;;;;;;;;5039963;28;20610;-52
2022/07/06 08:31:57;;;;;;;2.88;1.30;;;;;;;;;;5045218;28;20224;-53
2022/07/06 08:34:23;;;;;;;14.20;11.55;;;;;;;;;;5036549;28;20228;-53
2022/07/06 08:36:49;;;;;;;4.25;2.28;;;;;;;;;;5046195;28;20284;-53
2022/07/06 08:39:17;;;;;;;0.80;0.80;;;;;;;;;;5030490;28;20240;-51
2022/07/06 08:41:47;;;;;;;2.15;1.00;;;;;;;;;;5037202;28;20224;-52
2022/07/06 08:44:15;;;;;;;3.75;1.40;;;;;;;;;;5044852;28;20231;-51
2022/07/06 08:46:41;;;;;;;0.82;0.77;;;;;;;;;;5038565;28;20236;-51
2022/07/06 08:49:08;;;;;;;2.13;0.73;;;;;;;;;;5030304;28;20241;-53
2022/07/06 08:51:35;;;;;;;1.15;0.80;;;;;;;;;;5038740;28;20259;-52
2022/07/06 08:54:03;;;;;;;1.50;0.80;;;;;;;;;;5031792;28;20619;-51
2022/07/06 08:56:29;;;;;;;5.20;1.00;;;;;;;;;;5039624;28;20228;-52
2022/07/06 08:58:56;;;;;;;1.45;0.88;;;;;;;;;;5045250;28;20232;-51
2022/07/06 09:01:23;;;;;;;5.95;1.30;;;;;;;;;;5038695;28;20232;-53
2022/07/06 09:03:51;;;;;;;3.15;0.98;;;;;;;;;;5041631;28;20243;-50
2022/07/06 09:06:20;;;;;;;1.95;0.90;;;;;;;;;;5036692;28;20231;-51
2022/07/06 09:08:47;;;;;;;3.42;1.20;;;;;;;;;;5021550;28;20232;-51
2022/07/06 09:11:13;;;;;;;3.03;0.98;;;;;;;;;;5030149;28;20415;-52
2022/07/06 09:13:40;;;;;;;1.92;0.95;;;;;;;;;;5029412;28;20237;-52
2022/07/06 09:16:10;;;;;;;1.75;1.13;;;;;;;;;;5039615;28;20235;-53
2022/07/06 09:18:38;;;;;;;1.65;0.80;;;;;;;;;;5039027;28;20739;-52
2022/07/06 09:21:05;;;;;;;2.85;1.05;;;;;;;;;;5028637;28;20232;-51
2022/07/06 09:23:31;;;;;;;6.53;1.35;;;;;;;;;;5026225;28;20236;-51
2022/07/06 09:25:57;;;;;;;1.83;0.82;;;;;;;;;;5026744;28;20224;-52
2022/07/06 09:28:24;;;;;;;3.42;1.10;;;;;;;;;;5024562;28;20710;-50
2022/07/06 09:30:55;;;;;;;4.20;0.63;;;;;;;;;;5026567;28;20234;-51
2022/07/06 09:33:21;;;;;;;1.05;0.95;;;;;;;;;;5016092;28;20406;-51
2022/07/06 09:35:49;;;;;;;1.13;0.55;;;;;;;;;;5021864;28;20241;-57
2022/07/06 09:38:15;;;;;;;2.67;0.70;;;;;;;;;;5027759;28;20722;-51
2022/07/06 09:40:42;;;;;;;2.90;0.50;;;;;;;;;;5024238;28;20286;-51
2022/07/06 09:43:09;;;;;;;1.67;0.82;;;;;;;;;;5024522;28;20256;-52
2022/07/06 09:45:36;;;;;;;1.48;0.90;;;;;;;;;;5017928;28;20229;-53
2022/07/06 09:48:06;;;;;;;1.75;0.85;;;;;;;;;;5015913;28;20237;-51
2022/07/06 09:50:38;;;;;;;1.55;0.80;;;;;;;;;;5018775;28;20225;-53
2022/07/06 09:53:06;;;;;;;1.27;0.70;;;;;;;;;;5016668;28;20236;-51
2022/07/06 09:55:33;;;;;;;1.70;0.88;;;;;;;;;;5020642;28;20543;-52
2022/07/06 09:57:59;;;;;;;1.65;0.70;;;;;;;;;;5026363;28;20722;-52
2022/07/06 10:00:25;;;;;;;2.38;0.98;;;;;;;;;;5032658;28;20709;-50
2022/07/06 10:02:52;;;;;;;2.17;0.70;;;;;;;;;;5027244;28;20234;-53
2022/07/06 10:05:19;;;;;;;1.15;0.60;;;;;;;;;;5025053;28;20282;-53
2022/07/06 10:07:46;;;;;;;2.25;0.93;;;;;;;;;;5036767;28;20241;-52
2022/07/06 10:10:15;;;;;;;4.43;0.98;;;;;;;;;;5028912;28;20244;-50
2022/07/06 10:12:42;;;;;;;2.38;0.82;;;;;;;;;;5044224;28;20705;-53
2022/07/06 10:15:09;;;;;;;1.60;0.95;;;;;;;;;;5045505;28;20240;-52
2022/07/06 10:17:36;;;;;;;2.92;1.10;;;;;;;;;;5042859;28;20231;-52
2022/07/06 10:20:02;;;;;;;1.25;1.00;;;;;;;;;;5035131;28;20243;-50
2022/07/06 10:22:29;;;;;;;2.45;0.82;;;;;;;;;;5022960;28;20903;-51
2022/07/06 10:24:57;;;;;;;0.80;0.60;;;;;;;;;;5023495;28;20240;-52
2022/07/06 10:27:26;;;;;;;2.33;0.70;;;;;;;;;;5022200;28;20231;-52
2022/07/06 10:29:52;;;;;;;2.50;0.70;;;;;;;;;;5017874;28;20259;-51
2022/07/06 10:32:20;;;;;;;2.33;0.77;;;;;;;;;;5023619;28;20232;-55
2022/07/06 10:34:46;;;;;;;1.45;0.88;;;;;;;;;;5025162;28;20236;-52
2022/07/06 10:37:22;;;;;;;0.85;0.57;;;;;;;;;;5024698;28;20225;-51
2022/07/06 10:42:43;;;;;;;2.40;0.80;;;;;;;;;;5025837;28;20243;-54
2022/07/06 10:45:11;;;;;;;2.60;0.75;;;;;;;;;;5038045;28;20247;-53
2022/07/06 10:47:38;;;;;;;2.33;0.80;;;;;;;;;;5033291;28;20240;-50
2022/07/06 10:50:05;;;;;;;1.35;0.65;;;;;;;;;;5034024;28;20227;-52
2022/07/06 10:52:46;;;;;;;0.95;0.38;;;;;;;;;;5048847;28;20239;-51
2022/07/06 10:55:28;;;;;;;1.50;0.60;;;;;;;;;;5041128;28;20251;-51
2022/07/06 10:57:55;;;;;;;1.50;0.70;;;;;;;;;;5036242;28;20250;-51
2022/07/06 11:00:22;;;;;;;0.95;0.77;;;;;;;;;;5032405;28;20235;-51
2022/07/06 11:02:48;;;;;;;3.83;0.60;;;;;;;;;;5040280;28;20706;-51
2022/07/06 11:05:37;;;;;;;1.02;0.63;;;;;;;;;;5043302;28;20223;-53
2022/07/06 11:08:04;;;;;;;1.90;0.75;;;;;;;;;;5043101;28;20591;-55
2022/07/06 11:10:46;;;;;;;2.20;1.00;;;;;;;;;;5032154;28;20232;-52
2022/07/06 11:13:26;;;;;;;1.05;0.95;;;;;;;;;;5022564;28;20240;-52
2022/07/06 11:15:53;;;;;;;1.52;0.57;;;;;;;;;;5027085;28;20227;-51
2022/07/06 11:18:20;;;;;;;3.17;1.83;;;;;;;;;;5023876;28;20248;-51
2022/07/06 11:21:15;;;;;;;3.88;1.30;;;;;;;;;;5046018;28;20238;-51
2022/07/06 11:23:41;;;;;;;4.00;0.50;;;;;;;;;;5050465;28;20254;-53
2022/07/06 11:26:08;;;;;;;3.00;0.50;;;;;;;;;;5053877;28;20228;-52
2022/07/06 11:28:36;;;;;;;1.17;0.40;;;;;;;;;;5041429;28;20231;-52
2022/07/06 11:31:03;;;;;;;2.67;0.60;;;;;;;;;;5030420;28;20228;-51
2022/07/06 11:33:29;;;;;;;0.95;0.30;;;;;;;;;;5035614;28;20232;-52
2022/07/06 11:36:10;;;;;;;1.27;0.77;;;;;;;;;;5038892;28;20240;-52
2022/07/06 11:38:36;;;;;;;0.40;0.40;;;;;;;;;;5030680;28;20247;-51
2022/07/06 11:41:03;;;;;;;2.00;0.98;;;;;;;;;;5032502;28;20232;-52
2022/07/06 11:43:29;;;;;;;2.22;0.88;;;;;;;;;;5037060;28;20228;-53
2022/07/06 11:45:57;;;;;;;0.50;0.30;;;;;;;;;;5028707;28;20622;-51
2022/07/06 11:48:23;;;;;;;1.33;0.60;;;;;;;;;;5031407;28;20239;-51
2022/07/06 11:50:58;;;;;;;3.13;0.75;;;;;;;;;;5014638;28;20233;-51
2022/07/06 11:53:24;;;;;;;0.85;0.65;;;;;;;;;;5026627;28;20243;-52
2022/07/06 11:55:51;;;;;;;1.23;0.70;;;;;;;;;;5033637;28;20705;-51
2022/07/06 11:58:19;;;;;;;3.63;0.60;;;;;;;;;;5030557;28;20227;-52
2022/07/06 12:00:46;;;;;;;0.63;0.50;;;;;;;;;;5036436;28;20232;-50
2022/07/06 12:03:17;;;;;;;0.68;0.60;;;;;;;;;;5026010;28;20240;-52
2022/07/06 12:05:43;;;;;;;1.10;0.63;;;;;;;;;;5020382;28;20236;-51
2022/07/06 12:08:10;;;;;;;0.85;0.60;;;;;;;;;;5027790;28;21988;-51
2022/07/06 12:10:37;;;;;;;1.58;0.68;;;;;;;;;;5027421;28;20232;-51
2022/07/06 12:13:04;;;;;;;1.52;0.73;;;;;;;;;;5027150;28;20398;-51
2022/07/06 12:15:30;;;;;;;0.80;0.55;;;;;;;;;;5030926;28;20229;-50
2022/07/06 12:17:56;;;;;;;0.93;0.50;;;;;;;;;;5043635;28;20236;-52
2022/07/06 12:20:25;;;;;;;2.25;0.90;;;;;;;;;;5039181;28;20258;-53
2022/07/06 12:23:01;;;;;;;1.40;0.70;;;;;;;;;;5028851;28;20314;-52
2022/07/06 12:25:30;;;;;;;3.80;0.90;;;;;;;;;;5028749;28;20224;-51
2022/07/06 12:27:57;;;;;;;0.93;0.55;;;;;;;;;;5039782;28;20263;-51
2022/07/06 12:30:23;;;;;;;1.13;0.57;;;;;;;;;;5028515;28;20239;-51
2022/07/06 12:33:05;;;;;;;0.95;0.50;;;;;;;;;;5040167;28;20242;-53
2022/07/06 12:35:32;;;;;;;0.40;0.40;;;;;;;;;;5018598;28;20319;-51
2022/07/06 12:38:00;;;;;;;2.05;0.88;;;;;;;;;;5027149;28;20239;-51
2022/07/06 12:40:27;;;;;;;1.42;0.82;;;;;;;;;;5019924;28;20340;-50
2022/07/06 12:42:53;;;;;;;2.10;0.70;;;;;;;;;;5016530;28;20240;-51
2022/07/06 12:45:20;;;;;;;2.45;1.27;;;;;;;;;;5014761;28;20232;-52
2022/07/06 12:47:57;;;;;;;1.85;0.70;;;;;;;;;;5029476;28;20922;-53
2022/07/06 12:50:30;;;;;;;0.47;0.43;;;;;;;;;;5029518;28;20224;-51
2022/07/06 12:52:58;;;;;;;0.70;0.52;;;;;;;;;;5032260;28;20624;-53
2022/07/06 12:55:27;;;;;;;0.70;0.70;;;;;;;;;;5033151;28;20777;-49
2022/07/06 12:57:55;;;;;;;5.93;0.70;;;;;;;;;;5043192;28;20836;-51
2022/07/06 13:00:22;;;;;;;1.42;0.70;;;;;;;;;;5040663;28;20262;-52
2022/07/06 13:02:53;;;;;;;0.55;0.55;;;;;;;;;;5043805;28;20311;-51
2022/07/06 13:05:27;;;;;;;3.75;0.60;;;;;;;;;;5038663;28;20969;-51
2022/07/06 13:07:54;;;;;;;2.33;0.60;;;;;;;;;;5033389;28;20227;-53
2022/07/06 13:10:22;;;;;;;0.82;0.40;;;;;;;;;;5033589;28;20737;-50
2022/07/06 13:12:48;;;;;;;3.67;0.50;;;;;;;;;;5030046;28;20625;-51
2022/07/06 13:15:14;;;;;;;3.83;0.80;;;;;;;;;;5038773;28;20263;-52
2022/07/06 13:17:41;;;;;;;0.73;0.65;;;;;;;;;;5041092;28;20263;-53
2022/07/06 13:20:08;;;;;;;0.93;0.57;;;;;;;;;;5039628;28;20228;-53
2022/07/06 13:22:35;;;;;;;1.33;0.55;;;;;;;;;;5041712;28;20232;-52
2022/07/06 13:25:02;;;;;;;1.38;0.60;;;;;;;;;;5040829;28;20282;-51
2022/07/06 13:27:30;;;;;;;0.50;0.40;;;;;;;;;;5036740;28;20231;-52
2022/07/06 13:29:56;;;;;;;3.63;0.55;;;;;;;;;;5034476;28;20242;-50
2022/07/06 13:32:22;;;;;;;1.33;0.55;;;;;;;;;;5041147;28;20227;-52
2022/07/06 13:34:49;;;;;;;1.30;0.77;;;;;;;;;;5041390;28;20290;-51
2022/07/06 13:37:15;;;;;;;1.02;0.60;;;;;;;;;;5041381;28;20705;-51
2022/07/06 13:39:41;;;;;;;0.85;0.45;;;;;;;;;;5033616;28;20231;-51
2022/07/06 13:42:08;;;;;;;3.63;1.00;;;;;;;;;;5038160;28;20242;-51
2022/07/06 13:44:37;;;;;;;1.65;0.73;;;;;;;;;;5031993;28;20268;-52
2022/07/06 13:47:03;;;;;;;2.38;0.82;;;;;;;;;;5016290;28;20225;-55
2022/07/06 13:49:29;;;;;;;0.50;0.50;;;;;;;;;;5019014;28;20243;-50
2022/07/06 13:52:02;;;;;;;0.73;0.30;;;;;;;;;;5021502;28;20236;-52
2022/07/06 13:54:28;;;;;;;1.05;0.50;;;;;;;;;;5031377;28;20527;-50
2022/07/06 13:56:55;;;;;;;4.40;0.43;;;;;;;;;;5035050;28;20251;-51
2022/07/06 13:59:21;;;;;;;0.30;0.30;;;;;;;;;;5035825;28;20247;-51
2022/07/06 14:01:49;;;;;;;0.50;0.47;;;;;;;;;;5026066;28;20232;-52
2022/07/06 14:04:15;;;;;;;1.10;0.35;;;;;;;;;;5031147;28;20240;-52
2022/07/06 14:06:41;;;;;;;0.57;0.57;;;;;;;;;;5039342;28;20243;-53
2022/07/06 14:09:08;;;;;;;2.25;0.75;;;;;;;;;;5040169;28;20227;-51
2022/07/06 14:11:34;;;;;;;0.40;0.30;;;;;;;;;;5037742;28;20236;-51
2022/07/06 14:14:00;;;;;;;0.60;0.52;;;;;;;;;;5026352;28;20240;-52
2022/07/06 14:16:27;;;;;;;0.30;0.30;;;;;;;;;;5036661;28;20724;-51
2022/07/06 14:18:55;;;;;;;0.60;0.30;;;;;;;;;;5036827;28;20228;-51
2022/07/06 14:21:21;;;;;;;3.95;0.50;;;;;;;;;;5033629;28;20795;-51
2022/07/06 14:23:48;;;;;;;1.20;0.60;;;;;;;;;;5037913;28;20232;-50
2022/07/06 14:26:14;;;;;;;2.45;1.00;;;;;;;;;;5032678;28;20241;-51
2022/07/06 14:28:41;;;;;;;0.93;0.60;;;;;;;;;;5037179;28;20235;-52
2022/07/06 14:31:07;;;;;;;1.48;0.47;;;;;;;;;;5042954;28;20232;-52
2022/07/06 14:33:34;;;;;;;1.50;0.40;;;;;;;;;;5044423;28;20246;-51
2022/07/06 14:36:01;;;;;;;1.88;0.55;;;;;;;;;;5042265;28;20268;-56
2022/07/06 14:38:28;;;;;;;3.72;0.50;;;;;;;;;;5040135;28;20645;-52
2022/07/06 14:40:54;;;;;;;2.13;0.47;;;;;;;;;;5033468;28;20743;-51
2022/07/06 14:43:21;;;;;;;0.98;0.98;;;;;;;;;;5043848;28;20307;-52
2022/07/06 14:45:47;;;;;;;0.55;0.40;;;;;;;;;;5046082;28;20231;-51
2022/07/06 14:48:14;;;;;;;1.27;0.30;;;;;;;;;;5032696;28;20609;-51